sensor_id;sensor_type;location;lat;lon;timestamp;temperature;humidity
44271;DHT22;29963;44.594;11.368;2024-01-30T00:01:16;1.70;99.90
44271;DHT22;29963;44.594;11.368;2024-01-30T00:03:41;1.70;99.90
44271;DHT22;29963;44.594;11.368;2024-01-30T00:06:08;1.70;99.90
44271;DHT22;29963;44.594;11.368;2024-01-30T00:08:34;1.70;99.90
44271;DHT22;29963;44.594;11.368;2024-01-30T00:10:59;1.60;99.90
44271;DHT22;29963;44.594;11.368;2024-01-30T00:13:26;1.70;99.90
44271;DHT22;29963;44.594;11.368;2024-01-30T00:15:52;1.70;99.90
44271;DHT22;29963;44.594;11.368;2024-01-30T00:18:18;1.60;99.90
44271;DHT22;29963;44.594;11.368;2024-01-30T00:20:44;1.70;99.90
44271;DHT22;29963;44.594;11.368;2024-01-30T00:23:09;1.60;99.90
44271;DHT22;29963;44.594;11.368;2024-01-30T00:25:35;1.70;99.90
44271;DHT22;29963;44.594;11.368;2024-01-30T00:28:01;1.70;99.90
44271;DHT22;29963;44.594;11.368;2024-01-30T00:30:26;1.70;99.90
44271;DHT22;29963;44.594;11.368;2024-01-30T00:32:52;1.80;99.90
44271;DHT22;29963;44.594;11.368;2024-01-30T00:35:17;1.90;99.90
44271;DHT22;29963;44.594;11.368;2024-01-30T00:37:43;1.90;99.90
44271;DHT22;29963;44.594;11.368;2024-01-30T00:40:09;2.00;99.90
44271;DHT22;29963;44.594;11.368;2024-01-30T00:42:43;2.00;99.90
44271;DHT22;29963;44.594;11.368;2024-01-30T00:45:13;1.90;99.90
44271;DHT22;29963;44.594;11.368;2024-01-30T00:47:39;2.00;99.90
44271;DHT22;29963;44.594;11.368;2024-01-30T00:50:05;2.00;99.90
44271;DHT22;29963;44.594;11.368;2024-01-30T00:52:31;2.00;99.90
44271;DHT22;29963;44.594;11.368;2024-01-30T00:55:01;2.00;99.90
44271;DHT22;29963;44.594;11.368;2024-01-30T00:57:28;1.90;99.90
44271;DHT22;29963;44.594;11.368;2024-01-30T00:59:54;1.80;99.90
44271;DHT22;29963;44.594;11.368;2024-01-30T01:02:20;1.70;99.90
44271;DHT22;29963;44.594;11.368;2024-01-30T01:04:45;1.70;99.90
44271;DHT22;29963;44.594;11.368;2024-01-30T01:07:11;1.60;99.90
44271;DHT22;29963;44.594;11.368;2024-01-30T01:09:37;1.60;99.90
44271;DHT22;29963;44.594;11.368;2024-01-30T01:12:03;1.60;99.90
44271;DHT22;29963;44.594;11.368;2024-01-30T01:14:29;1.50;99.90
44271;DHT22;29963;44.594;11.368;2024-01-30T01:16:55;1.50;99.90
44271;DHT22;29963;44.594;11.368;2024-01-30T01:19:21;1.60;99.90
44271;DHT22;29963;44.594;11.368;2024-01-30T01:21:47;1.60;99.90
44271;DHT22;29963;44.594;11.368;2024-01-30T01:24:12;1.60;99.90
44271;DHT22;29963;44.594;11.368;2024-01-30T01:26:38;1.40;99.90
44271;DHT22;29963;44.594;11.368;2024-01-30T01:29:04;1.20;99.90
44271;DHT22;29963;44.594;11.368;2024-01-30T01:31:36;1.10;99.90
44271;DHT22;29963;44.594;11.368;2024-01-30T01:34:05;1.00;99.90
44271;DHT22;29963;44.594;11.368;2024-01-30T01:36:31;0.90;99.90
44271;DHT22;29963;44.594;11.368;2024-01-30T01:38:56;0.80;99.90
44271;DHT22;29963;44.594;11.368;2024-01-30T01:41:22;0.80;99.90
44271;DHT22;29963;44.594;11.368;2024-01-30T01:43:48;0.70;99.90
44271;DHT22;29963;44.594;11.368;2024-01-30T01:46:13;0.70;99.90
44271;DHT22;29963;44.594;11.368;2024-01-30T01:48:39;0.70;99.90
44271;DHT22;29963;44.594;11.368;2024-01-30T01:51:05;0.50;99.90
44271;DHT22;29963;44.594;11.368;2024-01-30T01:53:31;0.40;99.90
44271;DHT22;29963;44.594;11.368;2024-01-30T01:55:57;0.50;99.90
44271;DHT22;29963;44.594;11.368;2024-01-30T01:58:26;0.50;99.90
44271;DHT22;29963;44.594;11.368;2024-01-30T02:00:54;0.60;99.90
44271;DHT22;29963;44.594;11.368;2024-01-30T02:03:20;0.60;99.90
44271;DHT22;29963;44.594;11.368;2024-01-30T02:05:50;0.50;99.90
44271;DHT22;29963;44.594;11.368;2024-01-30T02:08:16;0.40;99.90
44271;DHT22;29963;44.594;11.368;2024-01-30T02:10:42;0.30;99.90
44271;DHT22;29963;44.594;11.368;2024-01-30T02:13:07;0.20;99.90
44271;DHT22;29963;44.594;11.368;2024-01-30T02:15:33;0.10;99.90
44271;DHT22;29963;44.594;11.368;2024-01-30T02:17:59;0.10;99.90
44271;DHT22;29963;44.594;11.368;2024-01-30T02:20:25;0.10;99.90
44271;DHT22;29963;44.594;11.368;2024-01-30T02:22:52;0.10;99.90
44271;DHT22;29963;44.594;11.368;2024-01-30T02:25:19;0.20;99.90
44271;DHT22;29963;44.594;11.368;2024-01-30T02:27:45;0.10;99.90
44271;DHT22;29963;44.594;11.368;2024-01-30T02:30:11;0.30;99.90
44271;DHT22;29963;44.594;11.368;2024-01-30T02:32:37;0.40;99.90
44271;DHT22;29963;44.594;11.368;2024-01-30T02:35:02;0.40;99.90
44271;DHT22;29963;44.594;11.368;2024-01-30T02:37:28;0.50;99.90
44271;DHT22;29963;44.594;11.368;2024-01-30T02:39:54;0.60;99.90
44271;DHT22;29963;44.594;11.368;2024-01-30T02:42:19;0.60;99.90
44271;DHT22;29963;44.594;11.368;2024-01-30T02:44:45;0.60;99.90
44271;DHT22;29963;44.594;11.368;2024-01-30T02:47:10;0.50;99.90
44271;DHT22;29963;44.594;11.368;2024-01-30T02:49:36;0.50;99.90
44271;DHT22;29963;44.594;11.368;2024-01-30T02:52:02;0.30;99.90
44271;DHT22;29963;44.594;11.368;2024-01-30T02:54:28;0.40;99.90
44271;DHT22;29963;44.594;11.368;2024-01-30T02:56:55;0.30;99.90
44271;DHT22;29963;44.594;11.368;2024-01-30T02:59:21;0.30;99.90
44271;DHT22;29963;44.594;11.368;2024-01-30T03:01:47;0.40;99.90
44271;DHT22;29963;44.594;11.368;2024-01-30T03:04:13;0.40;99.90
44271;DHT22;29963;44.594;11.368;2024-01-30T03:06:44;0.40;99.90
44271;DHT22;29963;44.594;11.368;2024-01-30T03:09:10;0.40;99.90
44271;DHT22;29963;44.594;11.368;2024-01-30T03:11:36;0.30;99.90
44271;DHT22;29963;44.594;11.368;2024-01-30T03:14:01;0.30;99.90
44271;DHT22;29963;44.594;11.368;2024-01-30T03:16:27;0.20;99.90
44271;DHT22;29963;44.594;11.368;2024-01-30T03:18:52;0.10;99.90
44271;DHT22;29963;44.594;11.368;2024-01-30T03:21:18;0.10;99.90
44271;DHT22;29963;44.594;11.368;2024-01-30T03:23:43;0.10;99.90
44271;DHT22;29963;44.594;11.368;2024-01-30T03:26:09;0.10;99.90
44271;DHT22;29963;44.594;11.368;2024-01-30T03:28:36;0.10;99.90
44271;DHT22;29963;44.594;11.368;2024-01-30T03:31:01;0.10;99.90
44271;DHT22;29963;44.594;11.368;2024-01-30T03:33:27;0.10;99.90
44271;DHT22;29963;44.594;11.368;2024-01-30T03:35:53;0.20;99.90
44271;DHT22;29963;44.594;11.368;2024-01-30T03:38:19;0.30;99.90
44271;DHT22;29963;44.594;11.368;2024-01-30T03:40:44;0.30;99.90
44271;DHT22;29963;44.594;11.368;2024-01-30T03:43:10;0.20;99.90
44271;DHT22;29963;44.594;11.368;2024-01-30T03:45:36;0.00;99.90
44271;DHT22;29963;44.594;11.368;2024-01-30T03:48:01;-0.10;99.90
44271;DHT22;29963;44.594;11.368;2024-01-30T03:50:27;-0.10;99.90
44271;DHT22;29963;44.594;11.368;2024-01-30T03:52:53;-0.20;99.90
44271;DHT22;29963;44.594;11.368;2024-01-30T03:55:19;-0.20;99.90
44271;DHT22;29963;44.594;11.368;2024-01-30T03:57:44;-0.20;99.90
44271;DHT22;29963;44.594;11.368;2024-01-30T04:00:10;-0.10;99.90
44271;DHT22;29963;44.594;11.368;2024-01-30T04:02:36;0.00;99.90
44271;DHT22;29963;44.594;11.368;2024-01-30T04:05:02;-0.10;99.90
44271;DHT22;29963;44.594;11.368;2024-01-30T04:07:27;0.00;99.90
44271;DHT22;29963;44.594;11.368;2024-01-30T04:09:54;-0.10;99.90
44271;DHT22;29963;44.594;11.368;2024-01-30T04:12:20;0.00;99.90
44271;DHT22;29963;44.594;11.368;2024-01-30T04:14:48;-0.10;99.90
44271;DHT22;29963;44.594;11.368;2024-01-30T04:17:13;-0.20;99.90
44271;DHT22;29963;44.594;11.368;2024-01-30T04:19:40;-0.20;99.90
44271;DHT22;29963;44.594;11.368;2024-01-30T04:22:06;-0.20;99.90
44271;DHT22;29963;44.594;11.368;2024-01-30T04:24:31;-0.10;99.90
44271;DHT22;29963;44.594;11.368;2024-01-30T04:26:57;-0.10;99.90
44271;DHT22;29963;44.594;11.368;2024-01-30T04:29:22;-0.10;99.90
44271;DHT22;29963;44.594;11.368;2024-01-30T04:31:48;-0.10;99.90
44271;DHT22;29963;44.594;11.368;2024-01-30T04:34:14;-0.10;99.90
44271;DHT22;29963;44.594;11.368;2024-01-30T04:36:39;-0.10;99.90
44271;DHT22;29963;44.594;11.368;2024-01-30T04:39:05;-0.40;99.90
44271;DHT22;29963;44.594;11.368;2024-01-30T04:41:30;0.00;99.90
44271;DHT22;29963;44.594;11.368;2024-01-30T04:43:57;0.00;99.90
44271;DHT22;29963;44.594;11.368;2024-01-30T04:46:23;0.10;99.90
44271;DHT22;29963;44.594;11.368;2024-01-30T04:48:49;0.10;99.90
44271;DHT22;29963;44.594;11.368;2024-01-30T04:51:14;0.20;99.90
44271;DHT22;29963;44.594;11.368;2024-01-30T04:53:40;0.20;99.90
44271;DHT22;29963;44.594;11.368;2024-01-30T04:56:06;0.20;99.90
44271;DHT22;29963;44.594;11.368;2024-01-30T04:58:31;0.30;99.90
44271;DHT22;29963;44.594;11.368;2024-01-30T05:00:57;0.30;99.90
44271;DHT22;29963;44.594;11.368;2024-01-30T05:03:22;0.30;99.90
44271;DHT22;29963;44.594;11.368;2024-01-30T05:05:49;0.30;99.90
44271;DHT22;29963;44.594;11.368;2024-01-30T05:08:15;0.10;99.90
44271;DHT22;29963;44.594;11.368;2024-01-30T05:10:40;0.10;99.90
44271;DHT22;29963;44.594;11.368;2024-01-30T05:13:06;0.20;99.90
44271;DHT22;29963;44.594;11.368;2024-01-30T05:15:32;0.10;99.90
44271;DHT22;29963;44.594;11.368;2024-01-30T05:17:57;0.10;99.90
44271;DHT22;29963;44.594;11.368;2024-01-30T05:20:23;0.10;99.90
44271;DHT22;29963;44.594;11.368;2024-01-30T05:22:48;0.00;99.90
44271;DHT22;29963;44.594;11.368;2024-01-30T05:25:14;0.00;99.90
44271;DHT22;29963;44.594;11.368;2024-01-30T05:27:39;0.00;99.90
44271;DHT22;29963;44.594;11.368;2024-01-30T05:30:08;0.10;99.90
44271;DHT22;29963;44.594;11.368;2024-01-30T05:32:34;0.10;99.90
44271;DHT22;29963;44.594;11.368;2024-01-30T05:35:00;0.20;99.90
44271;DHT22;29963;44.594;11.368;2024-01-30T05:37:25;-0.50;99.90
44271;DHT22;29963;44.594;11.368;2024-01-30T05:39:51;0.30;99.90
44271;DHT22;29963;44.594;11.368;2024-01-30T05:42:17;0.10;99.90
44271;DHT22;29963;44.594;11.368;2024-01-30T05:44:42;0.30;99.90
44271;DHT22;29963;44.594;11.368;2024-01-30T05:47:11;0.30;99.90
44271;DHT22;29963;44.594;11.368;2024-01-30T05:49:36;0.30;99.90
44271;DHT22;29963;44.594;11.368;2024-01-30T05:52:03;0.40;99.90
44271;DHT22;29963;44.594;11.368;2024-01-30T05:54:29;0.40;99.90
44271;DHT22;29963;44.594;11.368;2024-01-30T05:56:54;0.30;99.90
44271;DHT22;29963;44.594;11.368;2024-01-30T05:59:20;0.30;99.90
44271;DHT22;29963;44.594;11.368;2024-01-30T06:01:46;0.30;99.90
44271;DHT22;29963;44.594;11.368;2024-01-30T06:04:12;0.30;99.90
44271;DHT22;29963;44.594;11.368;2024-01-30T06:06:38;0.20;99.90
44271;DHT22;29963;44.594;11.368;2024-01-30T06:09:04;0.10;99.90
44271;DHT22;29963;44.594;11.368;2024-01-30T06:11:29;0.00;99.90
44271;DHT22;29963;44.594;11.368;2024-01-30T06:13:55;-0.10;99.90
44271;DHT22;29963;44.594;11.368;2024-01-30T06:16:20;0.00;99.90
44271;DHT22;29963;44.594;11.368;2024-01-30T06:18:47;0.20;99.90
44271;DHT22;29963;44.594;11.368;2024-01-30T06:21:13;0.40;99.90
44271;DHT22;29963;44.594;11.368;2024-01-30T06:23:41;-0.10;99.90
44271;DHT22;29963;44.594;11.368;2024-01-30T06:26:07;-0.20;99.90
44271;DHT22;29963;44.594;11.368;2024-01-30T06:28:32;-0.50;99.90
44271;DHT22;29963;44.594;11.368;2024-01-30T06:31:00;-0.20;99.90
44271;DHT22;29963;44.594;11.368;2024-01-30T06:33:29;-0.20;99.90
44271;DHT22;29963;44.594;11.368;2024-01-30T06:35:54;-0.30;99.90
44271;DHT22;29963;44.594;11.368;2024-01-30T06:38:20;-0.30;99.90
44271;DHT22;29963;44.594;11.368;2024-01-30T06:40:45;-0.30;99.90
44271;DHT22;29963;44.594;11.368;2024-01-30T06:43:11;-0.10;99.90
44271;DHT22;29963;44.594;11.368;2024-01-30T06:45:37;-0.10;99.90
44271;DHT22;29963;44.594;11.368;2024-01-30T06:48:03;-0.10;99.90
44271;DHT22;29963;44.594;11.368;2024-01-30T06:50:28;-0.20;99.90
44271;DHT22;29963;44.594;11.368;2024-01-30T06:52:54;-0.20;99.90
44271;DHT22;29963;44.594;11.368;2024-01-30T06:55:19;-0.20;99.90
44271;DHT22;29963;44.594;11.368;2024-01-30T06:57:45;-0.20;99.90
44271;DHT22;29963;44.594;11.368;2024-01-30T07:00:11;-0.20;99.90
44271;DHT22;29963;44.594;11.368;2024-01-30T07:02:37;-0.30;99.90
44271;DHT22;29963;44.594;11.368;2024-01-30T07:05:03;-0.20;99.90
44271;DHT22;29963;44.594;11.368;2024-01-30T07:07:29;-0.10;99.90
44271;DHT22;29963;44.594;11.368;2024-01-30T07:09:55;-0.10;99.90
44271;DHT22;29963;44.594;11.368;2024-01-30T07:12:23;-0.10;99.90
44271;DHT22;29963;44.594;11.368;2024-01-30T07:14:51;-0.10;99.90
44271;DHT22;29963;44.594;11.368;2024-01-30T07:17:16;-0.10;99.90
44271;DHT22;29963;44.594;11.368;2024-01-30T07:19:42;0.00;99.90
44271;DHT22;29963;44.594;11.368;2024-01-30T07:22:08;0.00;99.90
44271;DHT22;29963;44.594;11.368;2024-01-30T07:24:34;0.00;99.90
44271;DHT22;29963;44.594;11.368;2024-01-30T07:26:59;0.00;99.90
44271;DHT22;29963;44.594;11.368;2024-01-30T07:29:25;0.00;99.90
44271;DHT22;29963;44.594;11.368;2024-01-30T07:31:51;0.00;99.90
44271;DHT22;29963;44.594;11.368;2024-01-30T07:34:16;0.00;99.90
44271;DHT22;29963;44.594;11.368;2024-01-30T07:36:42;-0.10;99.90
44271;DHT22;29963;44.594;11.368;2024-01-30T07:39:07;-0.10;99.90
44271;DHT22;29963;44.594;11.368;2024-01-30T07:41:33;-0.20;99.90
44271;DHT22;29963;44.594;11.368;2024-01-30T07:43:59;-0.10;99.90
44271;DHT22;29963;44.594;11.368;2024-01-30T07:46:24;-0.10;99.90
44271;DHT22;29963;44.594;11.368;2024-01-30T07:48:53;0.00;99.90
44271;DHT22;29963;44.594;11.368;2024-01-30T07:51:18;0.00;99.90
44271;DHT22;29963;44.594;11.368;2024-01-30T07:53:46;0.00;99.90
44271;DHT22;29963;44.594;11.368;2024-01-30T07:56:12;0.00;99.90
44271;DHT22;29963;44.594;11.368;2024-01-30T07:58:38;-0.10;99.90
44271;DHT22;29963;44.594;11.368;2024-01-30T08:01:03;-0.10;99.90
44271;DHT22;29963;44.594;11.368;2024-01-30T08:03:29;-0.10;99.90
44271;DHT22;29963;44.594;11.368;2024-01-30T08:05:54;-0.20;99.90
44271;DHT22;29963;44.594;11.368;2024-01-30T08:08:20;-0.20;99.90
44271;DHT22;29963;44.594;11.368;2024-01-30T08:10:46;-0.20;99.90
44271;DHT22;29963;44.594;11.368;2024-01-30T08:13:12;-0.20;99.90
44271;DHT22;29963;44.594;11.368;2024-01-30T08:15:37;-0.10;99.90
44271;DHT22;29963;44.594;11.368;2024-01-30T08:18:03;-0.10;99.90
44271;DHT22;29963;44.594;11.368;2024-01-30T08:20:29;0.00;99.90
44271;DHT22;29963;44.594;11.368;2024-01-30T08:22:55;0.10;99.90
44271;DHT22;29963;44.594;11.368;2024-01-30T08:25:21;0.10;99.90
44271;DHT22;29963;44.594;11.368;2024-01-30T08:27:50;0.20;99.90
44271;DHT22;29963;44.594;11.368;2024-01-30T08:30:15;0.20;99.90
44271;DHT22;29963;44.594;11.368;2024-01-30T08:32:41;0.30;99.90
44271;DHT22;29963;44.594;11.368;2024-01-30T08:35:07;0.30;99.90
44271;DHT22;29963;44.594;11.368;2024-01-30T08:37:33;0.10;99.90
44271;DHT22;29963;44.594;11.368;2024-01-30T08:39:59;0.20;99.90
44271;DHT22;29963;44.594;11.368;2024-01-30T08:42:25;0.30;99.90
44271;DHT22;29963;44.594;11.368;2024-01-30T08:44:51;0.20;99.90
44271;DHT22;29963;44.594;11.368;2024-01-30T08:47:18;0.20;99.90
44271;DHT22;29963;44.594;11.368;2024-01-30T08:49:44;0.30;99.90
44271;DHT22;29963;44.594;11.368;2024-01-30T08:52:12;0.40;99.90
44271;DHT22;29963;44.594;11.368;2024-01-30T08:54:38;0.40;99.90
44271;DHT22;29963;44.594;11.368;2024-01-30T08:57:03;0.50;99.90
44271;DHT22;29963;44.594;11.368;2024-01-30T08:59:29;0.60;99.90
44271;DHT22;29963;44.594;11.368;2024-01-30T09:01:55;0.60;99.90
44271;DHT22;29963;44.594;11.368;2024-01-30T09:04:23;0.70;99.90
44271;DHT22;29963;44.594;11.368;2024-01-30T09:06:49;0.70;99.90
44271;DHT22;29963;44.594;11.368;2024-01-30T09:09:14;0.80;99.90
44271;DHT22;29963;44.594;11.368;2024-01-30T09:11:40;0.90;99.90
44271;DHT22;29963;44.594;11.368;2024-01-30T09:14:06;0.90;99.90
44271;DHT22;29963;44.594;11.368;2024-01-30T09:16:34;1.00;99.90
44271;DHT22;29963;44.594;11.368;2024-01-30T09:19:00;1.00;99.90
44271;DHT22;29963;44.594;11.368;2024-01-30T09:21:25;1.10;99.90
44271;DHT22;29963;44.594;11.368;2024-01-30T09:23:54;1.10;99.90
44271;DHT22;29963;44.594;11.368;2024-01-30T09:26:20;1.20;99.90
44271;DHT22;29963;44.594;11.368;2024-01-30T09:28:46;1.20;99.90
44271;DHT22;29963;44.594;11.368;2024-01-30T09:31:12;1.10;99.90
44271;DHT22;29963;44.594;11.368;2024-01-30T09:33:38;1.40;99.90
44271;DHT22;29963;44.594;11.368;2024-01-30T09:36:05;1.40;99.90
44271;DHT22;29963;44.594;11.368;2024-01-30T09:38:31;1.40;99.90
44271;DHT22;29963;44.594;11.368;2024-01-30T09:41:01;1.50;99.90
44271;DHT22;29963;44.594;11.368;2024-01-30T09:43:33;1.50;99.90
44271;DHT22;29963;44.594;11.368;2024-01-30T09:46:00;1.60;99.90
44271;DHT22;29963;44.594;11.368;2024-01-30T09:48:29;1.70;99.90
44271;DHT22;29963;44.594;11.368;2024-01-30T09:50:58;1.80;99.90
44271;DHT22;29963;44.594;11.368;2024-01-30T09:53:25;1.80;99.90
44271;DHT22;29963;44.594;11.368;2024-01-30T09:55:51;1.80;99.90
44271;DHT22;29963;44.594;11.368;2024-01-30T09:58:16;1.80;99.90
44271;DHT22;29963;44.594;11.368;2024-01-30T10:00:42;2.00;99.90
44271;DHT22;29963;44.594;11.368;2024-01-30T10:03:08;2.10;99.90
44271;DHT22;29963;44.594;11.368;2024-01-30T10:05:35;2.10;99.90
44271;DHT22;29963;44.594;11.368;2024-01-30T10:08:06;2.20;99.90
44271;DHT22;29963;44.594;11.368;2024-01-30T10:10:33;2.30;99.90
44271;DHT22;29963;44.594;11.368;2024-01-30T10:12:59;2.40;99.90
44271;DHT22;29963;44.594;11.368;2024-01-30T10:15:25;2.50;99.90
44271;DHT22;29963;44.594;11.368;2024-01-30T10:17:53;2.70;99.90
44271;DHT22;29963;44.594;11.368;2024-01-30T10:20:18;2.90;99.90
44271;DHT22;29963;44.594;11.368;2024-01-30T10:22:45;3.10;99.90
44271;DHT22;29963;44.594;11.368;2024-01-30T10:25:11;3.20;99.90
44271;DHT22;29963;44.594;11.368;2024-01-30T10:27:39;3.30;99.90
44271;DHT22;29963;44.594;11.368;2024-01-30T10:30:05;3.30;99.90
44271;DHT22;29963;44.594;11.368;2024-01-30T10:32:31;3.30;99.90
44271;DHT22;29963;44.594;11.368;2024-01-30T10:34:56;3.30;99.90
44271;DHT22;29963;44.594;11.368;2024-01-30T10:37:25;3.40;99.90
44271;DHT22;29963;44.594;11.368;2024-01-30T10:39:53;3.50;99.90
44271;DHT22;29963;44.594;11.368;2024-01-30T10:42:19;3.50;99.90
44271;DHT22;29963;44.594;11.368;2024-01-30T10:45:02;3.50;99.90
44271;DHT22;29963;44.594;11.368;2024-01-30T10:47:31;3.50;99.90
44271;DHT22;29963;44.594;11.368;2024-01-30T10:49:59;3.60;99.90
44271;DHT22;29963;44.594;11.368;2024-01-30T10:52:26;3.80;99.90
44271;DHT22;29963;44.594;11.368;2024-01-30T10:54:53;3.80;99.90
44271;DHT22;29963;44.594;11.368;2024-01-30T10:57:19;3.80;99.90
44271;DHT22;29963;44.594;11.368;2024-01-30T10:59:45;3.90;99.90
44271;DHT22;29963;44.594;11.368;2024-01-30T11:02:13;3.90;99.90
44271;DHT22;29963;44.594;11.368;2024-01-30T11:04:41;3.90;99.90
44271;DHT22;29963;44.594;11.368;2024-01-30T11:07:24;4.00;99.90
44271;DHT22;29963;44.594;11.368;2024-01-30T11:12:29;4.10;99.90
44271;DHT22;29963;44.594;11.368;2024-01-30T11:15:06;4.20;99.90
44271;DHT22;29963;44.594;11.368;2024-01-30T11:20:31;4.50;99.90
44271;DHT22;29963;44.594;11.368;2024-01-30T11:23:01;4.60;99.90
44271;DHT22;29963;44.594;11.368;2024-01-30T11:25:31;4.70;99.90
44271;DHT22;29963;44.594;11.368;2024-01-30T11:27:57;4.80;99.90
44271;DHT22;29963;44.594;11.368;2024-01-30T11:30:23;4.80;99.90
44271;DHT22;29963;44.594;11.368;2024-01-30T11:33:02;4.90;99.90
44271;DHT22;29963;44.594;11.368;2024-01-30T11:35:31;5.00;99.90
44271;DHT22;29963;44.594;11.368;2024-01-30T11:37:59;5.00;99.90
44271;DHT22;29963;44.594;11.368;2024-01-30T11:40:27;5.10;99.90
44271;DHT22;29963;44.594;11.368;2024-01-30T11:42:53;5.20;99.90
44271;DHT22;29963;44.594;11.368;2024-01-30T11:45:20;5.30;99.90
44271;DHT22;29963;44.594;11.368;2024-01-30T11:47:45;5.40;99.90
44271;DHT22;29963;44.594;11.368;2024-01-30T11:50:11;5.50;99.90
44271;DHT22;29963;44.594;11.368;2024-01-30T11:52:37;5.60;99.90
44271;DHT22;29963;44.594;11.368;2024-01-30T11:55:03;5.70;99.90
44271;DHT22;29963;44.594;11.368;2024-01-30T11:57:29;5.80;99.90
44271;DHT22;29963;44.594;11.368;2024-01-30T11:59:55;5.90;99.90
44271;DHT22;29963;44.594;11.368;2024-01-30T12:02:21;5.90;99.90
44271;DHT22;29963;44.594;11.368;2024-01-30T12:04:46;6.00;99.90
44271;DHT22;29963;44.594;11.368;2024-01-30T12:07:12;6.00;99.90
44271;DHT22;29963;44.594;11.368;2024-01-30T12:09:41;6.10;99.90
44271;DHT22;29963;44.594;11.368;2024-01-30T12:12:07;6.10;99.90
44271;DHT22;29963;44.594;11.368;2024-01-30T12:14:40;6.20;99.90
44271;DHT22;29963;44.594;11.368;2024-01-30T12:17:07;6.20;99.90
44271;DHT22;29963;44.594;11.368;2024-01-30T12:19:34;6.30;99.90
44271;DHT22;29963;44.594;11.368;2024-01-30T12:22:02;6.50;99.90
44271;DHT22;29963;44.594;11.368;2024-01-30T12:24:28;6.60;99.90
44271;DHT22;29963;44.594;11.368;2024-01-30T12:26:57;6.80;99.90
44271;DHT22;29963;44.594;11.368;2024-01-30T12:29:24;6.90;99.90
44271;DHT22;29963;44.594;11.368;2024-01-30T12:31:53;7.00;99.90
44271;DHT22;29963;44.594;11.368;2024-01-30T12:34:19;7.00;99.90
44271;DHT22;29963;44.594;11.368;2024-01-30T12:36:47;7.10;99.90
44271;DHT22;29963;44.594;11.368;2024-01-30T12:39:14;7.20;99.90
44271;DHT22;29963;44.594;11.368;2024-01-30T12:41:40;7.30;99.90
44271;DHT22;29963;44.594;11.368;2024-01-30T12:44:06;7.40;99.90
44271;DHT22;29963;44.594;11.368;2024-01-30T12:46:34;7.40;99.90
44271;DHT22;29963;44.594;11.368;2024-01-30T12:49:00;7.60;99.90
44271;DHT22;29963;44.594;11.368;2024-01-30T12:51:25;7.60;99.90
44271;DHT22;29963;44.594;11.368;2024-01-30T12:53:51;7.60;99.90
44271;DHT22;29963;44.594;11.368;2024-01-30T12:56:17;7.70;99.90
44271;DHT22;29963;44.594;11.368;2024-01-30T12:58:42;7.70;99.90
44271;DHT22;29963;44.594;11.368;2024-01-30T13:01:09;7.80;99.90
44271;DHT22;29963;44.594;11.368;2024-01-30T13:03:35;7.80;99.90
44271;DHT22;29963;44.594;11.368;2024-01-30T13:06:01;7.80;99.90
44271;DHT22;29963;44.594;11.368;2024-01-30T13:08:26;8.00;99.90
44271;DHT22;29963;44.594;11.368;2024-01-30T13:10:52;8.00;99.90
44271;DHT22;29963;44.594;11.368;2024-01-30T13:13:18;8.10;99.90
44271;DHT22;29963;44.594;11.368;2024-01-30T13:15:43;8.20;99.90
44271;DHT22;29963;44.594;11.368;2024-01-30T13:18:09;8.70;99.90
44271;DHT22;29963;44.594;11.368;2024-01-30T13:20:35;8.40;99.90
44271;DHT22;29963;44.594;11.368;2024-01-30T13:23:01;8.40;99.90
44271;DHT22;29963;44.594;11.368;2024-01-30T13:25:26;8.60;99.90
44271;DHT22;29963;44.594;11.368;2024-01-30T13:27:52;8.60;99.90
44271;DHT22;29963;44.594;11.368;2024-01-30T13:30:18;8.70;99.90
44271;DHT22;29963;44.594;11.368;2024-01-30T13:32:44;8.80;99.90
44271;DHT22;29963;44.594;11.368;2024-01-30T13:35:10;8.90;99.90
44271;DHT22;29963;44.594;11.368;2024-01-30T13:37:36;9.40;99.90
44271;DHT22;29963;44.594;11.368;2024-01-30T13:40:04;9.10;99.90
44271;DHT22;29963;44.594;11.368;2024-01-30T13:42:32;9.30;99.90
44271;DHT22;29963;44.594;11.368;2024-01-30T13:44:58;9.60;99.90
44271;DHT22;29963;44.594;11.368;2024-01-30T13:47:23;9.80;99.90
44271;DHT22;29963;44.594;11.368;2024-01-30T13:49:49;9.80;99.90
44271;DHT22;29963;44.594;11.368;2024-01-30T13:52:15;10.10;99.90
44271;DHT22;29963;44.594;11.368;2024-01-30T13:54:40;10.30;99.90
44271;DHT22;29963;44.594;11.368;2024-01-30T13:57:06;10.50;99.90
44271;DHT22;29963;44.594;11.368;2024-01-30T13:59:33;10.80;99.90
44271;DHT22;29963;44.594;11.368;2024-01-30T14:01:58;11.00;99.90
44271;DHT22;29963;44.594;11.368;2024-01-30T14:04:24;11.20;99.90
44271;DHT22;29963;44.594;11.368;2024-01-30T14:06:49;11.50;99.90
44271;DHT22;29963;44.594;11.368;2024-01-30T14:09:15;11.70;99.90
44271;DHT22;29963;44.594;11.368;2024-01-30T14:11:41;12.00;99.90
44271;DHT22;29963;44.594;11.368;2024-01-30T14:14:07;12.20;99.90
44271;DHT22;29963;44.594;11.368;2024-01-30T14:16:32;12.70;99.90
44271;DHT22;29963;44.594;11.368;2024-01-30T14:18:58;13.80;99.90
44271;DHT22;29963;44.594;11.368;2024-01-30T14:21:24;15.40;99.90
44271;DHT22;29963;44.594;11.368;2024-01-30T14:23:49;16.70;99.90
44271;DHT22;29963;44.594;11.368;2024-01-30T14:26:15;17.60;99.90
44271;DHT22;29963;44.594;11.368;2024-01-30T14:28:40;17.90;99.90
44271;DHT22;29963;44.594;11.368;2024-01-30T14:31:07;18.50;99.90
44271;DHT22;29963;44.594;11.368;2024-01-30T14:33:32;19.10;99.90
44271;DHT22;29963;44.594;11.368;2024-01-30T14:35:58;18.80;99.90
44271;DHT22;29963;44.594;11.368;2024-01-30T14:38:24;18.70;99.90
44271;DHT22;29963;44.594;11.368;2024-01-30T14:40:50;18.90;99.90
44271;DHT22;29963;44.594;11.368;2024-01-30T14:43:16;19.00;99.90
44271;DHT22;29963;44.594;11.368;2024-01-30T14:48:08;18.40;99.90
44271;DHT22;29963;44.594;11.368;2024-01-30T14:50:34;17.80;99.90
44271;DHT22;29963;44.594;11.368;2024-01-30T14:53:00;17.50;99.90
44271;DHT22;29963;44.594;11.368;2024-01-30T14:55:25;17.40;99.90
44271;DHT22;29963;44.594;11.368;2024-01-30T14:57:51;17.60;99.90
44271;DHT22;29963;44.594;11.368;2024-01-30T15:00:17;17.80;99.90
44271;DHT22;29963;44.594;11.368;2024-01-30T15:02:42;18.20;99.90
44271;DHT22;29963;44.594;11.368;2024-01-30T15:05:08;18.30;99.90
44271;DHT22;29963;44.594;11.368;2024-01-30T15:07:36;18.30;99.90
44271;DHT22;29963;44.594;11.368;2024-01-30T15:10:02;18.30;99.90
44271;DHT22;29963;44.594;11.368;2024-01-30T15:12:28;18.50;99.90
44271;DHT22;29963;44.594;11.368;2024-01-30T15:14:54;18.50;99.90
44271;DHT22;29963;44.594;11.368;2024-01-30T15:17:20;18.40;99.90
44271;DHT22;29963;44.594;11.368;2024-01-30T15:19:48;18.00;99.90
44271;DHT22;29963;44.594;11.368;2024-01-30T15:22:16;17.70;99.90
44271;DHT22;29963;44.594;11.368;2024-01-30T15:24:42;17.50;99.90
44271;DHT22;29963;44.594;11.368;2024-01-30T15:27:08;17.30;99.90
44271;DHT22;29963;44.594;11.368;2024-01-30T15:29:34;16.90;99.90